createdAt,value
2022-09-07T00:01:25.255Z,18.70
2022-09-07T00:03:56.516Z,18.90
2022-09-07T00:06:25.256Z,18.90
2022-09-07T00:08:53.662Z,19.00
2022-09-07T00:11:24.111Z,18.70
2022-09-07T00:13:52.516Z,18.60
2022-09-07T00:16:23.928Z,18.70
2022-09-07T00:18:54.438Z,18.70
2022-09-07T00:21:22.702Z,18.80
2022-09-07T00:23:51.879Z,18.80
2022-09-07T00:26:24.178Z,18.80
2022-09-07T00:28:53.257Z,18.70
2022-09-07T00:31:23.060Z,18.60
2022-09-07T00:33:53.080Z,18.50
2022-09-07T00:36:23.026Z,18.50
2022-09-07T00:38:51.481Z,18.60
2022-09-07T00:41:21.204Z,18.50
2022-09-07T00:43:54.288Z,18.30
2022-09-07T00:46:24.349Z,18.20
2022-09-07T00:48:59.935Z,18.00
2022-09-07T00:51:33.496Z,17.80
2022-09-07T00:54:05.746Z,17.80
2022-09-07T00:56:37.890Z,18.00
2022-09-07T00:59:08.856Z,17.90
2022-09-07T01:01:38.492Z,17.70
2022-09-07T01:04:08.024Z,17.60
2022-09-07T01:06:38.413Z,17.80
2022-09-07T01:09:10.281Z,17.60
2022-09-07T01:11:40.114Z,17.70
2022-09-07T01:14:13.571Z,17.70
2022-09-07T01:16:53.892Z,17.80
2022-09-07T01:19:58.939Z,17.90
2022-09-07T01:22:57.309Z,18.00
2022-09-07T01:25:39.739Z,18.00
2022-09-07T01:28:17.211Z,17.90
2022-09-07T01:30:54.441Z,17.60
2022-09-07T01:33:44.849Z,17.60
2022-09-07T01:36:22.419Z,17.60
2022-09-07T01:38:54.828Z,17.70
2022-09-07T01:41:28.296Z,17.60
2022-09-07T01:44:04.500Z,17.50
2022-09-07T01:46:36.763Z,17.60
2022-09-07T01:49:11.567Z,17.60
2022-09-07T01:51:46.312Z,17.70
2022-09-07T01:54:19.681Z,17.70
2022-09-07T01:56:50.448Z,17.60
2022-09-07T01:59:29.217Z,17.60
2022-09-07T02:02:03.341Z,17.50
2022-09-07T02:04:36.753Z,17.70
2022-09-07T02:07:11.276Z,17.70
2022-09-07T02:09:44.236Z,17.80
2022-09-07T02:12:19.996Z,17.70
2022-09-07T02:14:54.641Z,17.60
2022-09-07T02:17:29.990Z,17.60
2022-09-07T02:20:05.154Z,17.60
2022-09-07T02:22:39.186Z,17.70
2022-09-07T02:25:10.362Z,17.50
2022-09-07T02:27:44.070Z,17.50
2022-09-07T02:30:15.911Z,17.70
2022-09-07T02:32:44.285Z,17.50
2022-09-07T02:35:13.551Z,17.60
2022-09-07T02:37:44.418Z,17.50
2022-09-07T02:40:14.943Z,17.50
2022-09-07T02:42:44.496Z,17.70
2022-09-07T02:45:15.107Z,17.60
2022-09-07T02:48:06.236Z,17.50
2022-09-07T02:51:02.757Z,17.40
2022-09-07T02:53:56.312Z,17.50
2022-09-07T02:56:38.388Z,17.60
2022-09-07T02:59:19.583Z,17.60
2022-09-07T03:01:57.533Z,17.50
2022-09-07T03:04:37.084Z,17.50
2022-09-07T03:07:09.566Z,17.60
2022-09-07T03:09:42.320Z,17.70
2022-09-07T03:12:11.613Z,17.70
2022-09-07T03:14:42.124Z,17.70
2022-09-07T03:17:12.628Z,17.60
2022-09-07T03:19:41.360Z,17.70
2022-09-07T03:22:09.684Z,17.80
2022-09-07T03:24:38.225Z,17.80
2022-09-07T03:27:06.591Z,17.90
2022-09-07T03:29:36.545Z,17.80
2022-09-07T03:32:08.248Z,17.90
2022-09-07T03:34:38.006Z,17.90
2022-09-07T03:37:06.258Z,18.00
2022-09-07T03:39:36.040Z,18.10
2022-09-07T03:42:04.390Z,18.10
2022-09-07T03:44:33.324Z,18.20
2022-09-07T03:47:01.866Z,18.10
2022-09-07T03:49:30.050Z,18.10
2022-09-07T03:52:00.079Z,18.00
2022-09-07T03:54:28.906Z,18.10
2022-09-07T03:56:57.301Z,18.10
2022-09-07T03:59:25.663Z,18.10
2022-09-07T04:01:54.139Z,18.20
2022-09-07T04:04:22.768Z,18.20
2022-09-07T04:06:54.576Z,18.30
2022-09-07T04:09:24.447Z,18.30
2022-09-07T04:11:52.663Z,18.30
2022-09-07T04:14:21.603Z,18.40
2022-09-07T04:16:51.788Z,18.50
2022-09-07T04:19:20.238Z,18.50
2022-09-07T04:21:49.036Z,18.50
2022-09-07T04:24:18.597Z,18.50
2022-09-07T04:26:50.002Z,18.60
2022-09-07T04:29:21.082Z,18.70
2022-09-07T04:31:49.450Z,18.60
2022-09-07T04:34:17.620Z,18.50
2022-09-07T04:36:45.992Z,18.40
2022-09-07T04:39:14.122Z,18.30
2022-09-07T04:41:42.238Z,18.40
2022-09-07T04:44:16.767Z,18.40
2022-09-07T04:46:45.258Z,18.20
2022-09-07T04:49:14.034Z,18.10
2022-09-07T04:51:44.445Z,18.00
2022-09-07T04:54:13.002Z,18.10
2022-09-07T04:56:41.602Z,18.00
2022-09-07T04:59:09.855Z,18.00
2022-09-07T05:01:39.854Z,18.00
2022-09-07T05:04:08.329Z,17.90
2022-09-07T05:06:36.614Z,17.80
2022-09-07T05:09:05.039Z,17.90
2022-09-07T05:11:33.490Z,17.90
2022-09-07T05:14:03.242Z,17.90
2022-09-07T05:16:32.707Z,17.80
2022-09-07T05:19:05.117Z,17.90
2022-09-07T05:21:35.029Z,17.90
2022-09-07T05:24:04.561Z,17.90
2022-09-07T05:26:35.197Z,17.90
2022-09-07T05:31:54.898Z,17.90
2022-09-07T05:36:56.649Z,17.90
2022-09-07T05:39:25.712Z,17.80
2022-09-07T05:41:54.141Z,17.90
2022-09-07T05:47:11.628Z,17.90
2022-09-07T05:49:42.032Z,17.80
2022-09-07T05:52:10.775Z,17.70
2022-09-07T05:54:39.094Z,17.70
2022-09-07T05:57:08.559Z,17.70
2022-09-07T05:59:36.860Z,17.80
2022-09-07T06:02:05.703Z,18.10
2022-09-07T06:04:34.513Z,18.30
2022-09-07T06:07:21.082Z,18.60
2022-09-07T06:12:38.995Z,19.50
2022-09-07T06:15:09.091Z,19.90
2022-09-07T06:17:39.337Z,20.40
2022-09-07T06:20:09.251Z,20.60
2022-09-07T06:22:39.572Z,20.90
2022-09-07T06:25:08.378Z,21.20
2022-09-07T06:27:36.770Z,21.40
2022-09-07T06:30:07.562Z,21.50
2022-09-07T06:32:45.545Z,21.70
2022-09-07T06:35:15.174Z,21.80
2022-09-07T06:37:45.307Z,22.10
2022-09-07T06:40:14.040Z,22.40
2022-09-07T06:42:42.897Z,22.50
2022-09-07T06:45:11.825Z,22.30
2022-09-07T06:47:40.782Z,22.30
2022-09-07T06:50:10.505Z,22.30
2022-09-07T06:55:30.078Z,22.60
2022-09-07T06:57:58.431Z,22.30
2022-09-07T07:00:26.805Z,22.30
2022-09-07T07:02:55.587Z,22.30
2022-09-07T07:05:23.903Z,22.50
2022-09-07T07:07:56.559Z,22.70
2022-09-07T07:10:25.403Z,22.70
2022-09-07T07:12:58.530Z,22.70
2022-09-07T07:15:28.959Z,22.80
2022-09-07T07:18:02.659Z,22.80
2022-09-07T07:20:38.334Z,22.70
2022-09-07T07:23:07.213Z,22.90
2022-09-07T07:25:36.537Z,23.00
2022-09-07T07:30:57.349Z,23.00
2022-09-07T07:33:26.364Z,23.10
2022-09-07T07:35:54.750Z,23.20
2022-09-07T07:44:03.267Z,23.80
2022-09-07T07:46:32.636Z,24.00
2022-09-07T07:49:00.943Z,24.20
2022-09-07T07:51:29.309Z,24.30
2022-09-07T07:53:58.603Z,24.20
2022-09-07T07:56:27.227Z,24.30
2022-09-07T07:58:55.479Z,24.40
2022-09-07T08:01:25.564Z,24.40
2022-09-07T08:03:53.894Z,24.50
2022-09-07T08:06:23.117Z,24.50
2022-09-07T08:08:51.897Z,24.70
2022-09-07T08:11:22.102Z,24.80
2022-09-07T08:13:52.308Z,25.00
2022-09-07T08:16:20.902Z,25.20
2022-09-07T08:18:51.581Z,25.40
2022-09-07T08:21:19.931Z,25.40
2022-09-07T08:23:48.379Z,25.40
2022-09-07T08:26:16.698Z,25.60
2022-09-07T08:28:46.501Z,25.60
2022-09-07T08:31:16.987Z,25.60
2022-09-07T08:33:45.644Z,25.70
2022-09-07T08:36:17.861Z,25.80
2022-09-07T08:38:46.620Z,25.60
2022-09-07T08:41:49.893Z,25.60
2022-09-07T08:44:25.450Z,25.50
2022-09-07T08:46:59.039Z,25.60
2022-09-07T08:49:34.686Z,25.70
2022-09-07T08:52:07.007Z,25.90
2022-09-07T08:54:35.703Z,26.20
2022-09-07T08:57:20.837Z,26.50
2022-09-07T08:59:58.388Z,26.90
2022-09-07T09:02:28.563Z,27.10
2022-09-07T09:05:28.908Z,27.30
2022-09-07T09:08:06.020Z,27.30
2022-09-07T09:10:42.722Z,27.20
2022-09-07T09:13:18.221Z,26.80
2022-09-07T09:15:54.770Z,26.70
2022-09-07T09:18:43.539Z,26.60
2022-09-07T09:21:16.631Z,26.30
2022-09-07T09:23:50.129Z,26.00
2022-09-07T09:26:24.272Z,26.00
2022-09-07T09:28:52.891Z,25.90
2022-09-07T09:31:23.442Z,25.60
2022-09-07T09:34:10.530Z,25.50
2022-09-07T09:36:47.316Z,25.60
2022-09-07T09:39:30.178Z,25.60
2022-09-07T09:42:02.445Z,26.00
2022-09-07T09:44:37.614Z,26.20
2022-09-07T09:49:56.187Z,26.90
2022-09-07T09:52:31.247Z,27.20
2022-09-07T09:55:30.668Z,27.40
2022-09-07T10:04:04.690Z,27.50
2022-09-07T10:06:34.800Z,27.40
2022-09-07T10:09:03.863Z,27.30
2022-09-07T10:14:36.471Z,27.10
2022-09-07T10:17:15.036Z,27.30
2022-09-07T10:19:45.713Z,27.70
2022-09-07T10:22:32.418Z,27.90
2022-09-07T10:25:02.028Z,27.80
2022-09-07T10:27:35.457Z,28.00
2022-09-07T10:30:07.051Z,28.10
2022-09-07T10:32:51.540Z,28.30
2022-09-07T10:35:27.935Z,28.20
2022-09-07T10:38:07.543Z,28.20
2022-09-07T10:40:39.200Z,28.00
2022-09-07T10:43:21.861Z,27.60
2022-09-07T10:46:04.608Z,27.70
2022-09-07T10:48:38.903Z,27.50
2022-09-07T10:51:14.823Z,27.20
2022-09-07T10:54:29.394Z,27.00
2022-09-07T10:56:43.649Z,27.00
2022-09-07T11:02:26.147Z,27.30
2022-09-07T11:05:03.997Z,27.30
2022-09-07T11:07:55.957Z,27.30
2022-09-07T11:10:34.325Z,27.40
2022-09-07T11:13:06.937Z,27.20
2022-09-07T11:15:42.270Z,27.10
2022-09-07T11:18:17.888Z,27.00
2022-09-07T11:20:54.937Z,27.00
2022-09-07T11:23:28.313Z,27.10
2022-09-07T11:26:05.218Z,27.40
2022-09-07T11:28:45.883Z,27.40
2022-09-07T11:31:22.271Z,27.10
2022-09-07T11:36:52.662Z,27.00
2022-09-07T11:39:27.012Z,26.80
2022-09-07T11:42:42.578Z,26.90
2022-09-07T11:44:58.613Z,27.20
2022-09-07T11:47:34.553Z,27.40
2022-09-07T11:50:03.016Z,27.60
2022-09-07T11:52:39.189Z,27.70
2022-09-07T11:55:11.984Z,27.90
2022-09-07T11:58:01.382Z,27.70
2022-09-07T12:00:39.794Z,27.90
2022-09-07T12:03:38.298Z,28.10
2022-09-07T12:06:57.244Z,28.20
2022-09-07T12:09:55.187Z,28.40
2022-09-07T12:12:52.270Z,28.00
2022-09-07T12:15:31.594Z,28.10
2022-09-07T12:18:14.120Z,28.10
2022-09-07T12:20:45.885Z,28.20
2022-09-07T12:23:26.302Z,28.10
2022-09-07T12:26:15.286Z,27.90
2022-09-07T12:29:05.790Z,27.90
2022-09-07T12:31:58.207Z,27.60
2022-09-07T12:34:55.594Z,27.20
2022-09-07T12:37:43.014Z,27.20
2022-09-07T12:40:45.501Z,27.00
2022-09-07T12:43:47.977Z,27.00
2022-09-07T12:46:46.695Z,27.00
2022-09-07T12:50:00.546Z,26.80
2022-09-07T12:53:04.182Z,26.70
2022-09-07T12:56:18.348Z,26.60
2022-09-07T12:59:00.462Z,26.50
2022-09-07T13:01:41.949Z,26.30
2022-09-07T13:04:50.139Z,26.40
2022-09-07T13:07:44.028Z,26.30
2022-09-07T13:10:20.756Z,26.50
2022-09-07T13:12:53.407Z,26.60
2022-09-07T13:15:37.128Z,26.80
2022-09-07T13:18:05.876Z,27.00
2022-09-07T13:20:39.703Z,27.00
2022-09-07T13:23:30.326Z,27.20
2022-09-07T13:26:01.455Z,27.70
2022-09-07T13:28:44.154Z,27.60
2022-09-07T13:31:47.509Z,27.50
2022-09-07T13:34:55.267Z,27.30
2022-09-07T13:37:25.041Z,27.00
2022-09-07T13:39:56.420Z,26.80
2022-09-07T13:42:27.493Z,26.60
2022-09-07T13:44:59.971Z,26.50
2022-09-07T13:47:40.708Z,26.50
2022-09-07T13:50:29.166Z,26.40
2022-09-07T13:53:28.804Z,26.40
2022-09-07T13:56:07.491Z,26.50
2022-09-07T13:58:37.641Z,26.50
2022-09-07T14:01:16.813Z,26.80
2022-09-07T14:03:50.143Z,27.00
2022-09-07T14:06:28.658Z,27.10
2022-09-07T14:08:59.088Z,27.00
2022-09-07T14:11:29.835Z,26.80
2022-09-07T14:14:16.398Z,26.60
2022-09-07T14:16:49.083Z,26.60
2022-09-07T14:19:21.437Z,26.70
2022-09-07T14:22:01.331Z,26.80
2022-09-07T14:24:38.216Z,26.70
2022-09-07T14:27:08.635Z,26.80
2022-09-07T14:29:38.074Z,26.70
2022-09-07T14:32:14.831Z,26.60
2022-09-07T14:34:44.864Z,26.50
2022-09-07T14:37:16.183Z,26.50
2022-09-07T14:39:48.234Z,26.70
2022-09-07T14:42:23.724Z,26.60
2022-09-07T14:45:12.278Z,26.70
2022-09-07T14:47:42.167Z,26.70
2022-09-07T14:50:20.495Z,26.60
2022-09-07T14:55:43.994Z,26.40
2022-09-07T14:58:25.039Z,26.30
2022-09-07T15:03:59.034Z,26.20
2022-09-07T15:09:30.969Z,25.90
2022-09-07T15:12:17.714Z,25.90
2022-09-07T15:14:47.575Z,25.90
2022-09-07T15:20:40.450Z,25.70
2022-09-07T15:23:12.660Z,25.50
2022-09-07T15:25:45.384Z,25.30
2022-09-07T15:34:03.056Z,25.00
2022-09-07T15:36:32.843Z,25.00
2022-09-07T15:39:01.670Z,24.90
2022-09-07T15:41:31.725Z,24.80
2022-09-07T15:44:00.782Z,24.70
2022-09-07T15:46:28.953Z,24.60
2022-09-07T15:48:58.555Z,24.60
2022-09-07T15:54:20.591Z,24.50
2022-09-07T15:59:38.125Z,24.40
2022-09-07T16:03:04.407Z,24.30
2022-09-07T16:04:54.996Z,24.20
2022-09-07T16:08:24.891Z,24.20
2022-09-07T16:10:13.516Z,24.30
2022-09-07T16:15:30.380Z,24.10
2022-09-07T16:17:58.838Z,24.00
2022-09-07T16:20:31.647Z,23.90
2022-09-07T16:23:17.214Z,23.80
2022-09-07T16:25:58.493Z,23.70
2022-09-07T16:28:27.618Z,23.70
2022-09-07T16:30:56.485Z,23.60
2022-09-07T16:33:33.110Z,23.60
2022-09-07T16:36:06.286Z,23.50
2022-09-07T16:38:50.364Z,23.50
2022-09-07T16:41:23.251Z,23.40
2022-09-07T16:43:54.893Z,23.20
2022-09-07T16:46:25.069Z,23.30
2022-09-07T16:48:53.659Z,23.10
2022-09-07T16:51:23.192Z,23.00
2022-09-07T16:53:54.509Z,22.90
2022-09-07T16:56:25.858Z,22.80
2022-09-07T16:58:57.412Z,22.60
2022-09-07T17:01:28.190Z,22.60
2022-09-07T17:03:56.862Z,22.40
2022-09-07T17:06:26.857Z,22.30
2022-09-07T17:08:55.845Z,22.20
2022-09-07T17:11:27.814Z,22.10
2022-09-07T17:13:58.269Z,22.10
2022-09-07T17:16:29.780Z,22.00
2022-09-07T17:21:50.349Z,21.90
2022-09-07T17:24:19.701Z,21.90
2022-09-07T17:26:49.867Z,21.90
2022-09-07T17:29:18.625Z,22.00
2022-09-07T17:34:35.693Z,22.00
2022-09-07T17:37:04.045Z,22.10
2022-09-07T17:39:32.448Z,22.00
2022-09-07T17:42:02.557Z,22.10
2022-09-07T17:44:35.994Z,22.00
2022-09-07T17:47:06.776Z,22.00
2022-09-07T17:49:35.155Z,21.90
2022-09-07T17:52:04.368Z,22.00
2022-09-07T17:54:33.017Z,21.90
2022-09-07T17:57:03.148Z,21.90
2022-09-07T18:02:20.584Z,21.90
2022-09-07T18:04:49.236Z,21.90
2022-09-07T18:07:18.673Z,21.90
2022-09-07T18:09:49.245Z,21.70
2022-09-07T18:12:19.052Z,21.60
2022-09-07T18:14:47.488Z,21.60
2022-09-07T18:17:15.935Z,21.50
2022-09-07T18:19:44.255Z,21.50
2022-09-07T18:22:12.836Z,21.50
2022-09-07T18:24:41.322Z,21.60
2022-09-07T18:27:09.930Z,21.60
2022-09-07T18:29:39.631Z,21.60
2022-09-07T18:32:10.003Z,21.40
2022-09-07T18:34:41.401Z,21.40
2022-09-07T18:37:12.356Z,21.20
2022-09-07T18:39:41.197Z,21.30
2022-09-07T18:42:10.142Z,21.40
2022-09-07T18:47:29.613Z,21.30
2022-09-07T18:49:59.254Z,21.20
2022-09-07T18:55:17.420Z,21.20
2022-09-07T18:57:45.769Z,21.20
2022-09-07T19:00:16.149Z,21.20
2022-09-07T19:02:47.588Z,21.20
2022-09-07T19:08:05.373Z,21.00
2022-09-07T19:10:40.241Z,21.00
2022-09-07T19:13:08.916Z,20.80
2022-09-07T19:15:38.576Z,20.70
2022-09-07T19:18:08.845Z,20.60
2022-09-07T19:20:37.508Z,20.60
2022-09-07T19:23:05.951Z,20.60
2022-09-07T19:25:34.222Z,20.70
2022-09-07T19:28:02.781Z,20.60
2022-09-07T19:30:31.135Z,20.70
2022-09-07T19:33:04.357Z,20.60
2022-09-07T19:35:36.217Z,20.60
2022-09-07T19:38:04.658Z,20.60
2022-09-07T19:40:33.078Z,20.50
2022-09-07T19:43:03.146Z,20.60
2022-09-07T19:45:31.640Z,20.40
2022-09-07T19:48:01.482Z,20.30
2022-09-07T19:50:30.252Z,20.20
2022-09-07T19:52:59.342Z,20.10
2022-09-07T19:55:27.831Z,20.20
2022-09-07T19:57:56.506Z,20.20
2022-09-07T20:00:28.711Z,20.10
2022-09-07T20:02:57.109Z,20.20
2022-09-07T20:05:31.200Z,20.10
2022-09-07T20:07:59.580Z,20.00
2022-09-07T20:10:27.810Z,20.00
2022-09-07T20:12:56.412Z,20.00
2022-09-07T20:15:24.696Z,20.00
2022-09-07T20:17:53.987Z,20.00
2022-09-07T20:20:22.496Z,19.90
2022-09-07T20:22:52.417Z,19.80
2022-09-07T20:25:20.641Z,19.80
2022-09-07T20:27:48.849Z,19.90
2022-09-07T20:30:17.924Z,19.90
2022-09-07T20:32:46.102Z,19.80
2022-09-07T20:35:14.704Z,19.80
2022-09-07T20:37:43.590Z,19.70
2022-09-07T20:40:13.502Z,19.70
2022-09-07T20:42:42.018Z,19.70
2022-09-07T20:45:11.587Z,19.70
2022-09-07T20:47:39.829Z,19.80
2022-09-07T20:50:08.748Z,19.80
2022-09-07T20:52:37.357Z,19.80
2022-09-07T20:55:06.390Z,19.80
2022-09-07T20:57:38.055Z,19.70
2022-09-07T21:00:08.107Z,19.70
2022-09-07T21:02:36.745Z,19.60
2022-09-07T21:05:05.803Z,19.60
2022-09-07T21:07:34.134Z,19.60
2022-09-07T21:10:06.719Z,19.50
2022-09-07T21:12:37.270Z,19.60
2022-09-07T21:15:06.265Z,19.40
2022-09-07T21:17:34.408Z,19.50
2022-09-07T21:20:03.290Z,19.50
2022-09-07T21:22:32.338Z,19.50
2022-09-07T21:25:02.340Z,19.50
2022-09-07T21:27:38.155Z,19.40
2022-09-07T21:30:09.370Z,19.40
2022-09-07T21:32:38.024Z,19.40
2022-09-07T21:35:07.244Z,19.30
2022-09-07T21:37:35.436Z,19.30
2022-09-07T21:40:05.978Z,19.30
2022-09-07T21:42:34.300Z,19.40
2022-09-07T21:45:02.786Z,19.50
2022-09-07T21:47:32.925Z,19.50
2022-09-07T21:50:02.026Z,19.50
2022-09-07T21:52:30.224Z,19.60
2022-09-07T21:54:59.816Z,19.60
2022-09-07T21:57:28.042Z,19.60
2022-09-07T21:59:56.864Z,19.50
2022-09-07T22:02:25.316Z,19.50
2022-09-07T22:04:55.222Z,19.40
2022-09-07T22:07:23.405Z,19.40
2022-09-07T22:09:52.056Z,19.40
2022-09-07T22:12:20.543Z,19.40
2022-09-07T22:14:48.799Z,19.40
2022-09-07T22:17:17.406Z,19.40
2022-09-07T22:19:45.900Z,19.40
2022-09-07T22:22:15.649Z,19.50
2022-09-07T22:24:44.143Z,19.40
2022-09-07T22:27:12.501Z,19.40
2022-09-07T22:29:40.732Z,19.30
2022-09-07T22:32:09.261Z,19.40
2022-09-07T22:34:37.615Z,19.40
2022-09-07T22:37:05.956Z,19.30
2022-09-07T22:39:36.169Z,19.40
2022-09-07T22:42:04.484Z,19.40
2022-09-07T22:44:32.800Z,19.30
2022-09-07T22:47:01.246Z,19.40
2022-09-07T22:49:30.062Z,19.40
2022-09-07T22:51:58.221Z,19.50
2022-09-07T22:54:27.023Z,19.30
2022-09-07T22:56:56.861Z,19.30
2022-09-07T22:59:25.326Z,19.40
2022-09-07T23:01:53.902Z,19.40
2022-09-07T23:04:22.487Z,19.40
2022-09-07T23:06:50.868Z,19.30
2022-09-07T23:09:21.123Z,19.40
2022-09-07T23:11:50.178Z,19.30
2022-09-07T23:14:22.556Z,19.20
2022-09-07T23:16:51.371Z,19.20
2022-09-07T23:19:20.770Z,19.30
2022-09-07T23:21:49.633Z,19.10
2022-09-07T23:24:19.453Z,19.20
2022-09-07T23:26:47.833Z,19.10
2022-09-07T23:29:17.355Z,19.10
2022-09-07T23:31:48.279Z,19.00
2022-09-07T23:34:16.756Z,18.90
2022-09-07T23:36:45.296Z,18.70
2022-09-07T23:39:14.130Z,18.70
2022-09-07T23:41:42.505Z,18.70
2022-09-07T23:44:11.093Z,18.80
2022-09-07T23:46:39.826Z,18.80
2022-09-07T23:49:09.446Z,18.80
2022-09-07T23:51:37.871Z,18.90
2022-09-07T23:54:06.756Z,18.90
2022-09-07T23:56:37.910Z,18.80
2022-09-07T23:59:06.588Z,18.80
